Time;durP1;ratioP1;P1;durP2;ratioP2;P2;SDS_P1;SDS_P2;PMS_P1;PMS_P2;Temp;Humidity;BMP_temperature;BMP_pressure;BME280_temperature;BME280_humidity;BME280_pressure;Samples;Min_cycle;Max_cycle;Signal;HPM_P1;HPM_P2
2021/05/06 00:01:52;;;;;;;2.28;0.95;;;;;;;;;;5124952;27;20069;-70
2021/05/06 00:34:26;;;;;;;3.85;1.48;;;;;;;;;;5121883;28;20047;-70
2021/05/06 00:36:52;;;;;;;4.50;0.98;;;;;;;;;;5133882;28;20383;-70
2021/05/06 00:39:22;;;;;;;2.28;0.80;;;;;;;;;;5133746;28;20043;-69
2021/05/06 00:42:02;;;;;;;4.32;1.00;;;;;;;;;;5132371;28;20104;-69
2021/05/06 00:45:12;;;;;;;1.77;0.90;;;;;;;;;;5133800;28;20080;-69
2021/05/06 00:56:14;;;;;;;1.45;0.80;;;;;;;;;;5133225;28;20055;-69
2021/05/06 01:01:43;;;;;;;2.75;1.20;;;;;;;;;;5145684;27;20047;-70
2021/05/06 01:04:21;;;;;;;2.92;1.00;;;;;;;;;;5134128;28;20105;-70
2021/05/06 01:06:56;;;;;;;1.50;0.75;;;;;;;;;;5133208;27;20039;-70
2021/05/06 01:09:25;;;;;;;2.78;1.20;;;;;;;;;;5133727;28;20053;-69
2021/05/06 01:11:55;;;;;;;3.00;1.33;;;;;;;;;;5132050;27;20582;-69
2021/05/06 01:14:21;;;;;;;2.65;1.10;;;;;;;;;;5133328;28;20051;-70
2021/05/06 01:16:47;;;;;;;2.58;1.00;;;;;;;;;;5131941;28;20075;-70
2021/05/06 01:19:13;;;;;;;2.13;1.13;;;;;;;;;;5130562;28;20086;-69
2021/05/06 01:21:40;;;;;;;2.67;1.20;;;;;;;;;;5124529;28;20091;-70
2021/05/06 01:24:07;;;;;;;2.58;1.10;;;;;;;;;;5133124;28;20076;-69
2021/05/06 01:26:35;;;;;;;3.72;0.93;;;;;;;;;;5133331;28;20765;-69
2021/05/06 01:29:05;;;;;;;1.50;1.10;;;;;;;;;;5133999;27;20043;-70
2021/05/06 01:31:34;;;;;;;2.03;1.10;;;;;;;;;;5148042;27;20088;-69
2021/05/06 01:34:08;;;;;;;2.08;1.00;;;;;;;;;;5136982;27;20127;-69
2021/05/06 01:36:37;;;;;;;4.10;1.30;;;;;;;;;;5136662;27;20053;-70
2021/05/06 01:39:19;;;;;;;3.28;1.27;;;;;;;;;;5136418;27;20058;-70
2021/05/06 01:41:50;;;;;;;2.60;1.20;;;;;;;;;;5135836;27;20087;-70
2021/05/06 01:44:28;;;;;;;3.95;1.23;;;;;;;;;;5136270;27;20053;-69
2021/05/06 01:47:06;;;;;;;2.95;1.45;;;;;;;;;;5136730;27;20053;-69
2021/05/06 01:58:05;;;;;;;2.65;1.17;;;;;;;;;;5136477;27;20484;-69
2021/05/06 02:00:34;;;;;;;4.60;1.40;;;;;;;;;;5135743;27;20108;-69
2021/05/06 02:03:01;;;;;;;3.53;1.33;;;;;;;;;;5134605;27;20050;-69
2021/05/06 02:05:27;;;;;;;3.10;1.45;;;;;;;;;;5135804;27;20073;-69
2021/05/06 02:07:53;;;;;;;2.45;1.00;;;;;;;;;;5135831;27;20361;-70
2021/05/06 02:10:24;;;;;;;2.63;1.33;;;;;;;;;;5135528;27;20078;-69
2021/05/06 02:12:50;;;;;;;5.50;2.13;;;;;;;;;;5134921;27;20047;-69
2021/05/06 02:15:18;;;;;;;3.10;1.20;;;;;;;;;;5135619;27;20502;-69
2021/05/06 02:17:46;;;;;;;5.72;1.20;;;;;;;;;;5131943;27;20044;-69
2021/05/06 02:20:14;;;;;;;2.13;1.15;;;;;;;;;;5132883;27;20439;-70
2021/05/06 02:22:40;;;;;;;3.78;1.50;;;;;;;;;;5132162;27;20246;-70
2021/05/06 02:25:07;;;;;;;4.20;1.30;;;;;;;;;;5135392;27;20043;-70
2021/05/06 02:27:34;;;;;;;5.50;1.15;;;;;;;;;;5135352;27;20055;-69
2021/05/06 02:30:00;;;;;;;1.95;1.00;;;;;;;;;;5149125;27;20051;-70
2021/05/06 02:32:28;;;;;;;3.88;1.33;;;;;;;;;;5134144;27;20053;-70
2021/05/06 02:34:54;;;;;;;5.15;1.60;;;;;;;;;;5135705;27;20047;-70
2021/05/06 02:37:20;;;;;;;3.00;1.30;;;;;;;;;;5135439;27;20054;-69
2021/05/06 02:39:46;;;;;;;2.53;1.50;;;;;;;;;;5135167;27;20411;-70
2021/05/06 02:42:12;;;;;;;2.65;1.33;;;;;;;;;;5134156;27;20043;-70
2021/05/06 02:44:40;;;;;;;5.15;1.73;;;;;;;;;;5135533;27;20051;-70
2021/05/06 02:47:06;;;;;;;2.10;1.25;;;;;;;;;;5135201;27;20447;-70
2021/05/06 02:49:33;;;;;;;3.78;2.22;;;;;;;;;;5135190;27;20047;-69
2021/05/06 02:52:04;;;;;;;4.53;1.40;;;;;;;;;;5134237;27;20442;-70
2021/05/06 02:54:34;;;;;;;2.80;1.23;;;;;;;;;;5135519;27;20123;-69
2021/05/06 02:57:06;;;;;;;5.25;1.55;;;;;;;;;;5135003;27;20054;-69
2021/05/06 03:02:42;;;;;;;3.28;1.17;;;;;;;;;;5144230;27;20095;-69
2021/05/06 03:05:09;;;;;;;5.72;1.42;;;;;;;;;;5135057;27;20058;-70
2021/05/06 03:07:37;;;;;;;5.53;1.48;;;;;;;;;;5134810;27;20051;-69
2021/05/06 03:10:10;;;;;;;3.10;1.42;;;;;;;;;;5134882;27;20053;-69
2021/05/06 03:12:47;;;;;;;3.97;1.50;;;;;;;;;;5133519;27;20096;-69
2021/05/06 03:21:20;;;;;;;6.45;1.85;;;;;;;;;;5129653;27;20084;-70
2021/05/06 03:23:46;;;;;;;4.32;1.75;;;;;;;;;;5119297;27;20039;-70
2021/05/06 03:26:13;;;;;;;3.75;1.70;;;;;;;;;;5134303;27;20050;-70
2021/05/06 03:28:43;;;;;;;3.17;1.40;;;;;;;;;;5131797;27;20051;-70
2021/05/06 03:31:23;;;;;;;3.88;1.42;;;;;;;;;;5133579;27;20050;-70
2021/05/06 03:42:04;;;;;;;5.35;1.60;;;;;;;;;;5133332;27;20054;-69
2021/05/06 03:44:43;;;;;;;4.15;1.77;;;;;;;;;;5134483;27;20047;-69
2021/05/06 03:47:36;;;;;;;4.90;1.48;;;;;;;;;;5134033;27;20079;-69
2021/05/06 04:15:24;;;;;;;2.92;1.50;;;;;;;;;;5133830;27;20088;-69
2021/05/06 04:18:01;;;;;;;6.78;2.00;;;;;;;;;;5133174;27;20035;-71
2021/05/06 04:26:06;;;;;;;3.58;1.95;;;;;;;;;;5131602;28;20593;-69
2021/05/06 04:36:58;;;;;;;5.90;1.70;;;;;;;;;;5133596;28;20054;-69
2021/05/06 04:39:33;;;;;;;6.05;1.60;;;;;;;;;;5133722;28;20436;-70
2021/05/06 04:53:26;;;;;;;6.53;1.95;;;;;;;;;;5113299;28;20061;-69
2021/05/06 04:53:30;;;;;;;4.65;2.40;;;;;;;;;;5132383;28;20101;-69
2021/05/06 04:56:02;;;;;;;4.93;2.50;;;;;;;;;;5132791;28;20078;-69
2021/05/06 05:04:01;;;;;;;4.78;2.25;;;;;;;;;;5134464;27;20053;-69
2021/05/06 05:06:30;;;;;;;7.72;2.83;;;;;;;;;;5137396;27;20052;-69
2021/05/06 05:09:04;;;;;;;6.47;2.10;;;;;;;;;;5137858;27;20058;-69
2021/05/06 05:11:42;;;;;;;3.67;1.60;;;;;;;;;;5136567;27;20055;-69
2021/05/06 05:25:03;;;;;;;4.50;1.75;;;;;;;;;;5135074;27;20150;-69
2021/05/06 05:27:31;;;;;;;6.03;2.17;;;;;;;;;;5136427;27;20070;-69
2021/05/06 05:30:09;;;;;;;3.95;1.38;;;;;;;;;;5156051;27;20058;-68
2021/05/06 05:32:35;;;;;;;4.57;2.05;;;;;;;;;;5136048;27;20070;-68
2021/05/06 05:35:04;;;;;;;6.90;2.80;;;;;;;;;;5136306;27;20054;-69
2021/05/06 05:37:33;;;;;;;6.63;2.20;;;;;;;;;;5136649;27;20047;-68
2021/05/06 05:40:10;;;;;;;3.70;1.83;;;;;;;;;;5136725;27;20056;-68
2021/05/06 05:42:45;;;;;;;3.50;1.70;;;;;;;;;;5131569;27;20050;-68
2021/05/06 05:56:14;;;;;;;2.85;1.42;;;;;;;;;;5134166;27;20077;-69
2021/05/06 05:58:41;;;;;;;5.15;1.67;;;;;;;;;;5128109;27;20043;-69
2021/05/06 06:01:07;;;;;;;4.53;1.58;;;;;;;;;;5132083;27;20480;-69
2021/05/06 06:03:33;;;;;;;6.55;1.85;;;;;;;;;;5133332;27;20050;-69
2021/05/06 06:06:00;;;;;;;7.68;1.90;;;;;;;;;;5135465;27;20489;-69
2021/05/06 06:08:29;;;;;;;6.50;2.20;;;;;;;;;;5134847;27;20047;-69
2021/05/06 06:10:55;;;;;;;3.15;1.50;;;;;;;;;;5134140;27;20081;-68
2021/05/06 06:13:21;;;;;;;7.90;2.00;;;;;;;;;;5133298;27;20051;-70
2021/05/06 06:15:56;;;;;;;4.45;1.67;;;;;;;;;;5132999;27;20051;-68
2021/05/06 06:18:26;;;;;;;4.97;1.65;;;;;;;;;;5133121;27;20070;-69
2021/05/06 06:21:00;;;;;;;4.47;1.50;;;;;;;;;;5136947;27;20157;-69
2021/05/06 06:23:27;;;;;;;4.30;2.03;;;;;;;;;;5130213;27;20043;-69
2021/05/06 06:25:53;;;;;;;4.53;1.65;;;;;;;;;;5130078;27;20066;-68
2021/05/06 06:28:19;;;;;;;4.07;1.50;;;;;;;;;;5135008;27;20054;-68
2021/05/06 06:30:45;;;;;;;5.68;1.80;;;;;;;;;;5134386;27;20074;-69
2021/05/06 06:33:12;;;;;;;3.38;1.42;;;;;;;;;;5134638;27;20392;-68
2021/05/06 06:35:38;;;;;;;3.13;1.45;;;;;;;;;;5134549;27;20051;-68
2021/05/06 06:38:04;;;;;;;4.47;1.52;;;;;;;;;;5131756;27;20047;-68
2021/05/06 06:40:30;;;;;;;5.03;1.98;;;;;;;;;;5134638;27;20058;-69
2021/05/06 06:42:56;;;;;;;2.92;1.48;;;;;;;;;;5134838;27;20070;-69
2021/05/06 06:45:22;;;;;;;5.25;1.70;;;;;;;;;;5134645;27;20055;-68
2021/05/06 06:47:52;;;;;;;3.08;1.60;;;;;;;;;;5131691;27;20403;-68
2021/05/06 06:50:19;;;;;;;4.90;1.77;;;;;;;;;;5134558;27;20045;-68
2021/05/06 06:52:46;;;;;;;4.47;1.60;;;;;;;;;;5132887;27;20092;-71
2021/05/06 06:55:12;;;;;;;4.72;1.65;;;;;;;;;;5134033;27;20122;-69
2021/05/06 06:57:38;;;;;;;3.63;1.48;;;;;;;;;;5134450;27;20045;-69
2021/05/06 07:00:07;;;;;;;8.43;1.90;;;;;;;;;;5134573;27;20051;-70
2021/05/06 07:02:33;;;;;;;4.10;1.67;;;;;;;;;;5134000;27;20419;-67
2021/05/06 07:04:59;;;;;;;4.60;1.73;;;;;;;;;;5133533;27;20134;-69
2021/05/06 07:07:26;;;;;;;3.17;1.92;;;;;;;;;;5133617;27;20053;-70
2021/05/06 07:09:52;;;;;;;4.55;1.92;;;;;;;;;;5134069;27;20055;-70
2021/05/06 07:12:18;;;;;;;7.38;1.90;;;;;;;;;;5133682;27;20146;-67
2021/05/06 07:14:44;;;;;;;4.97;1.40;;;;;;;;;;5131672;27;20051;-69
2021/05/06 07:17:10;;;;;;;5.75;1.85;;;;;;;;;;5131704;27;20043;-72
2021/05/06 07:19:36;;;;;;;4.60;1.70;;;;;;;;;;5133849;27;20051;-67
2021/05/06 07:22:02;;;;;;;6.53;1.95;;;;;;;;;;5133424;27;20055;-69
2021/05/06 07:24:31;;;;;;;2.92;1.80;;;;;;;;;;5132104;27;20496;-71
2021/05/06 07:26:57;;;;;;;5.80;1.88;;;;;;;;;;5132237;27;20063;-69
2021/05/06 07:29:23;;;;;;;4.13;1.60;;;;;;;;;;5132412;27;20099;-69
2021/05/06 07:31:50;;;;;;;6.35;1.73;;;;;;;;;;5125864;27;20051;-71
2021/05/06 07:34:16;;;;;;;5.75;1.95;;;;;;;;;;5131707;27;20070;-69
2021/05/06 07:36:42;;;;;;;4.35;1.63;;;;;;;;;;5125585;27;20491;-69
2021/05/06 07:39:09;;;;;;;5.85;2.00;;;;;;;;;;5129741;27;20055;-68
2021/05/06 07:41:36;;;;;;;5.00;1.42;;;;;;;;;;5130602;27;20047;-68
2021/05/06 07:44:02;;;;;;;4.75;1.80;;;;;;;;;;5130580;27;20081;-68
2021/05/06 07:46:28;;;;;;;5.82;1.80;;;;;;;;;;5130885;27;20047;-69
2021/05/06 07:48:54;;;;;;;7.30;2.10;;;;;;;;;;5131128;27;20058;-67
2021/05/06 07:51:21;;;;;;;7.78;2.30;;;;;;;;;;5129637;27;20065;-70
2021/05/06 07:53:48;;;;;;;5.63;2.00;;;;;;;;;;5131857;27;20442;-69
2021/05/06 07:56:15;;;;;;;4.90;1.80;;;;;;;;;;5131204;27;20065;-70
2021/05/06 07:58:42;;;;;;;7.65;2.60;;;;;;;;;;5133128;27;20051;-69
2021/05/06 08:01:08;;;;;;;7.70;2.63;;;;;;;;;;5131769;27;20547;-70
2021/05/06 08:03:35;;;;;;;5.85;2.03;;;;;;;;;;5132158;27;20104;-70
2021/05/06 08:06:01;;;;;;;4.88;1.88;;;;;;;;;;5130659;27;20051;-69
2021/05/06 08:08:27;;;;;;;5.00;2.40;;;;;;;;;;5131905;27;20054;-71
2021/05/06 08:10:55;;;;;;;10.20;2.00;;;;;;;;;;5131268;27;20085;-68
2021/05/06 08:13:22;;;;;;;5.55;1.63;;;;;;;;;;5130935;27;20108;-69
2021/05/06 08:15:49;;;;;;;7.40;1.90;;;;;;;;;;5131957;27;20055;-69
2021/05/06 08:18:15;;;;;;;7.60;2.15;;;;;;;;;;5131382;27;20229;-67
2021/05/06 08:20:42;;;;;;;7.97;2.30;;;;;;;;;;5127226;27;20146;-68
2021/05/06 08:23:09;;;;;;;8.00;2.03;;;;;;;;;;5130148;27;20387;-68
2021/05/06 08:25:36;;;;;;;3.75;1.90;;;;;;;;;;5126686;28;20471;-69
2021/05/06 08:28:02;;;;;;;7.60;1.88;;;;;;;;;;5130966;28;20043;-69
2021/05/06 08:30:28;;;;;;;4.47;1.58;;;;;;;;;;5131234;28;20047;-69
2021/05/06 08:32:55;;;;;;;4.43;1.50;;;;;;;;;;5128114;28;20543;-69
2021/05/06 08:35:21;;;;;;;5.65;1.77;;;;;;;;;;5130162;28;20051;-68
2021/05/06 08:37:47;;;;;;;5.13;1.90;;;;;;;;;;5130994;27;20371;-69
2021/05/06 08:40:13;;;;;;;6.38;1.80;;;;;;;;;;5134153;27;20054;-71
2021/05/06 08:42:40;;;;;;;7.00;1.55;;;;;;;;;;5133924;27;20058;-70
2021/05/06 08:45:07;;;;;;;5.60;1.65;;;;;;;;;;5134391;27;20050;-70
2021/05/06 08:47:33;;;;;;;6.78;1.80;;;;;;;;;;5132116;27;20122;-69
2021/05/06 08:50:01;;;;;;;4.10;2.03;;;;;;;;;;5134091;27;20091;-70
2021/05/06 08:52:27;;;;;;;8.50;2.03;;;;;;;;;;5133289;27;20047;-69
2021/05/06 08:54:55;;;;;;;6.55;2.35;;;;;;;;;;5135638;27;20051;-71
2021/05/06 08:57:23;;;;;;;5.63;1.85;;;;;;;;;;5135201;27;20130;-70
2021/05/06 08:59:49;;;;;;;7.72;2.05;;;;;;;;;;5135876;27;20095;-70
2021/05/06 09:02:16;;;;;;;4.18;2.10;;;;;;;;;;5133743;27;20054;-69
2021/05/06 09:04:43;;;;;;;6.20;2.22;;;;;;;;;;5134077;27;20047;-71
2021/05/06 09:07:10;;;;;;;5.75;2.47;;;;;;;;;;5134819;27;20112;-69
2021/05/06 09:09:37;;;;;;;5.65;1.80;;;;;;;;;;5135345;27;20047;-71
2021/05/06 09:12:06;;;;;;;7.65;2.30;;;;;;;;;;5134730;27;20047;-69
2021/05/06 09:14:38;;;;;;;5.60;2.03;;;;;;;;;;5135666;27;20050;-68
2021/05/06 09:17:04;;;;;;;7.03;2.20;;;;;;;;;;5133602;27;20051;-69
2021/05/06 09:19:30;;;;;;;7.15;2.03;;;;;;;;;;5135729;27;20047;-68
2021/05/06 09:21:57;;;;;;;4.72;1.98;;;;;;;;;;5134920;27;20047;-70
2021/05/06 09:24:28;;;;;;;6.30;3.22;;;;;;;;;;5134208;27;20082;-70
2021/05/06 09:26:56;;;;;;;6.07;2.13;;;;;;;;;;5134536;27;20103;-69
2021/05/06 09:29:30;;;;;;;5.13;2.05;;;;;;;;;;5135909;27;20083;-69
2021/05/06 09:32:08;;;;;;;5.75;1.73;;;;;;;;;;5134455;27;20043;-70
2021/05/06 09:34:36;;;;;;;4.75;2.17;;;;;;;;;;5131517;27;20043;-71
2021/05/06 09:37:02;;;;;;;7.20;2.05;;;;;;;;;;5135601;27;20188;-70
2021/05/06 09:39:29;;;;;;;7.32;1.83;;;;;;;;;;5131733;27;20075;-69
2021/05/06 09:42:05;;;;;;;5.65;1.63;;;;;;;;;;5134428;27;20107;-69
2021/05/06 09:44:50;;;;;;;5.28;1.92;;;;;;;;;;5135557;27;20055;-68
2021/05/06 09:47:16;;;;;;;4.95;1.50;;;;;;;;;;5135321;27;20061;-68
2021/05/06 09:49:43;;;;;;;6.22;1.52;;;;;;;;;;5133026;27;20051;-68
2021/05/06 09:52:09;;;;;;;9.65;2.67;;;;;;;;;;5133973;27;20057;-69
2021/05/06 09:54:45;;;;;;;6.15;1.60;;;;;;;;;;5134822;27;20058;-69
2021/05/06 09:57:11;;;;;;;4.20;1.45;;;;;;;;;;5132604;27;20040;-68
2021/05/06 09:59:39;;;;;;;8.18;1.85;;;;;;;;;;5139477;27;20440;-68
2021/05/06 10:02:09;;;;;;;4.07;1.40;;;;;;;;;;5131301;27;20440;-68
2021/05/06 10:04:36;;;;;;;4.45;1.35;;;;;;;;;;5132561;27;20051;-68
2021/05/06 10:07:14;;;;;;;3.05;1.42;;;;;;;;;;5132686;27;20066;-68
2021/05/06 10:09:52;;;;;;;3.97;1.67;;;;;;;;;;5132252;27;20043;-68
2021/05/06 10:12:18;;;;;;;4.45;1.50;;;;;;;;;;5132745;27;20074;-68
2021/05/06 10:14:46;;;;;;;4.03;1.35;;;;;;;;;;5131813;27;20039;-69
2021/05/06 10:17:13;;;;;;;5.18;1.42;;;;;;;;;;5131511;27;20054;-69
2021/05/06 10:19:40;;;;;;;6.18;1.63;;;;;;;;;;5133007;27;20045;-69
2021/05/06 10:22:11;;;;;;;3.47;1.40;;;;;;;;;;5129833;27;20043;-69
2021/05/06 10:24:38;;;;;;;3.92;1.25;;;;;;;;;;5127884;27;20712;-70
2021/05/06 10:27:05;;;;;;;6.35;1.63;;;;;;;;;;5126368;27;20068;-69
2021/05/06 10:29:32;;;;;;;4.63;1.55;;;;;;;;;;5132851;27;20054;-70
2021/05/06 10:31:59;;;;;;;4.05;1.85;;;;;;;;;;5133046;27;20445;-68
2021/05/06 10:34:26;;;;;;;3.78;1.77;;;;;;;;;;5133473;27;20052;-70
2021/05/06 10:36:52;;;;;;;5.35;1.42;;;;;;;;;;5131459;27;20547;-70
2021/05/06 10:39:18;;;;;;;5.88;1.70;;;;;;;;;;5133474;27;20045;-69
2021/05/06 10:41:44;;;;;;;5.05;1.42;;;;;;;;;;5132173;27;20043;-70
2021/05/06 10:44:13;;;;;;;2.88;1.40;;;;;;;;;;5133363;27;20049;-70
2021/05/06 10:46:59;;;;;;;6.40;1.70;;;;;;;;;;5133316;27;20057;-70
2021/05/06 10:49:27;;;;;;;5.78;1.80;;;;;;;;;;5133447;27;20058;-70
2021/05/06 10:52:04;;;;;;;6.57;1.73;;;;;;;;;;5132505;27;20112;-70
2021/05/06 10:54:35;;;;;;;4.20;1.52;;;;;;;;;;5125063;27;20050;-69
2021/05/06 10:57:03;;;;;;;3.13;1.20;;;;;;;;;;5131704;27;20047;-69
2021/05/06 10:59:31;;;;;;;5.03;1.55;;;;;;;;;;5132776;27;20515;-69
2021/05/06 11:01:58;;;;;;;3.58;0.95;;;;;;;;;;5131501;27;20545;-69
2021/05/06 11:04:35;;;;;;;3.50;1.40;;;;;;;;;;5132491;27;20059;-70
2021/05/06 11:07:13;;;;;;;6.03;1.35;;;;;;;;;;5130462;27;20394;-69
2021/05/06 11:10:01;;;;;;;4.32;1.38;;;;;;;;;;5131293;27;20047;-70
2021/05/06 11:12:31;;;;;;;3.90;1.20;;;;;;;;;;5131505;27;20053;-69
2021/05/06 11:15:25;;;;;;;3.05;1.38;;;;;;;;;;5131467;27;20043;-69
2021/05/06 11:17:52;;;;;;;2.80;0.95;;;;;;;;;;5129987;27;20077;-69
2021/05/06 11:20:44;;;;;;;2.67;1.50;;;;;;;;;;5132606;27;20464;-69
2021/05/06 11:23:29;;;;;;;3.40;1.40;;;;;;;;;;5131372;27;20047;-69
2021/05/06 11:26:07;;;;;;;5.18;1.23;;;;;;;;;;5130509;27;20415;-69
2021/05/06 11:28:43;;;;;;;4.57;1.52;;;;;;;;;;5124787;27;20062;-70
2021/05/06 11:31:10;;;;;;;3.95;1.50;;;;;;;;;;5129323;27;20087;-70
2021/05/06 11:33:36;;;;;;;4.18;1.48;;;;;;;;;;5128086;27;20039;-70
2021/05/06 11:36:07;;;;;;;3.63;1.50;;;;;;;;;;5130694;27;20103;-70
2021/05/06 11:38:53;;;;;;;3.55;1.45;;;;;;;;;;5131044;27;20475;-71
2021/05/06 11:41:26;;;;;;;3.47;1.65;;;;;;;;;;5130439;27;20122;-73
2021/05/06 11:43:53;;;;;;;4.60;2.10;;;;;;;;;;5130455;27;20399;-69
2021/05/06 11:46:21;;;;;;;5.93;2.28;;;;;;;;;;5131709;27;20039;-71
2021/05/06 11:48:48;;;;;;;4.55;1.75;;;;;;;;;;5131387;27;20496;-70
2021/05/06 11:51:26;;;;;;;4.05;1.85;;;;;;;;;;5131491;27;20047;-69
2021/05/06 11:54:07;;;;;;;5.57;2.15;;;;;;;;;;5130229;27;20055;-70
2021/05/06 11:56:36;;;;;;;4.63;1.77;;;;;;;;;;5130315;27;20043;-69
2021/05/06 11:59:05;;;;;;;4.13;1.85;;;;;;;;;;5132247;27;20509;-69
2021/05/06 12:01:31;;;;;;;5.03;1.98;;;;;;;;;;5129979;27;20131;-70
2021/05/06 12:03:58;;;;;;;5.82;1.60;;;;;;;;;;5130704;27;20396;-69
2021/05/06 12:06:28;;;;;;;4.38;1.70;;;;;;;;;;5130130;27;20055;-71
2021/05/06 12:08:55;;;;;;;4.25;1.80;;;;;;;;;;5129598;27;20054;-70
2021/05/06 12:11:21;;;;;;;5.57;1.90;;;;;;;;;;5130285;27;20544;-70
2021/05/06 12:13:49;;;;;;;5.43;1.80;;;;;;;;;;5130001;27;20053;-71
2021/05/06 12:16:18;;;;;;;4.13;1.95;;;;;;;;;;5130150;27;20110;-70
2021/05/06 12:18:58;;;;;;;3.97;2.00;;;;;;;;;;5131038;27;20058;-69
2021/05/06 12:21:32;;;;;;;4.80;1.90;;;;;;;;;;5130899;27;20096;-69
2021/05/06 12:23:59;;;;;;;4.47;1.75;;;;;;;;;;5126421;27;20091;-69
2021/05/06 12:26:27;;;;;;;3.60;2.50;;;;;;;;;;5130023;27;20174;-70
2021/05/06 12:28:54;;;;;;;4.80;1.60;;;;;;;;;;5128648;28;20066;-72
2021/05/06 12:31:20;;;;;;;4.97;1.90;;;;;;;;;;5130595;28;20095;-71
2021/05/06 12:33:47;;;;;;;5.93;2.00;;;;;;;;;;5132593;28;20372;-70
2021/05/06 12:36:14;;;;;;;3.92;1.90;;;;;;;;;;5124137;28;20070;-69
2021/05/06 12:38:41;;;;;;;4.85;2.65;;;;;;;;;;5129950;28;20682;-71
2021/05/06 12:41:08;;;;;;;6.07;1.90;;;;;;;;;;5130832;28;20070;-70
2021/05/06 12:43:37;;;;;;;4.60;1.92;;;;;;;;;;5134861;27;20049;-70
2021/05/06 12:46:05;;;;;;;5.80;2.03;;;;;;;;;;5132910;28;20449;-69
2021/05/06 12:48:42;;;;;;;5.22;2.50;;;;;;;;;;5130958;28;20396;-70
2021/05/06 12:51:09;;;;;;;5.80;2.20;;;;;;;;;;5131351;27;20043;-71
2021/05/06 12:53:37;;;;;;;4.03;1.98;;;;;;;;;;5132284;28;20079;-69
2021/05/06 12:56:04;;;;;;;5.32;2.20;;;;;;;;;;5129920;28;20043;-70
2021/05/06 12:58:31;;;;;;;5.28;2.00;;;;;;;;;;5133466;27;20533;-69
2021/05/06 13:01:13;;;;;;;5.65;2.17;;;;;;;;;;5132170;27;20142;-70
2021/05/06 13:03:42;;;;;;;4.70;2.47;;;;;;;;;;5123218;27;20377;-69
2021/05/06 13:06:10;;;;;;;5.15;2.13;;;;;;;;;;5135700;27;20697;-70
2021/05/06 13:08:39;;;;;;;4.22;2.20;;;;;;;;;;5133149;28;20092;-72
2021/05/06 13:11:07;;;;;;;6.43;2.50;;;;;;;;;;5131628;28;20099;-70
2021/05/06 13:13:39;;;;;;;4.53;2.17;;;;;;;;;;5132290;28;20110;-70
2021/05/06 13:16:05;;;;;;;5.18;2.45;;;;;;;;;;5131215;28;20062;-69
2021/05/06 13:18:32;;;;;;;5.90;2.30;;;;;;;;;;5131932;28;20402;-70
2021/05/06 13:20:58;;;;;;;6.63;2.40;;;;;;;;;;5131976;28;20054;-70
2021/05/06 13:23:26;;;;;;;7.90;2.70;;;;;;;;;;5132807;28;20130;-69
2021/05/06 13:25:55;;;;;;;5.07;2.15;;;;;;;;;;5134848;27;20050;-69
2021/05/06 13:28:40;;;;;;;5.40;2.25;;;;;;;;;;5134179;27;20161;-72
2021/05/06 13:31:07;;;;;;;5.25;2.30;;;;;;;;;;5131124;27;20111;-70
2021/05/06 13:33:34;;;;;;;7.72;2.63;;;;;;;;;;5131666;27;20046;-70
2021/05/06 13:36:07;;;;;;;6.20;2.88;;;;;;;;;;5134042;27;20035;-70
2021/05/06 13:38:53;;;;;;;4.22;2.38;;;;;;;;;;5135951;27;20050;-69
2021/05/06 13:41:22;;;;;;;6.05;2.60;;;;;;;;;;5135456;27;20404;-69
2021/05/06 13:43:48;;;;;;;5.53;2.80;;;;;;;;;;5137037;27;20357;-69
2021/05/06 13:46:14;;;;;;;6.38;3.03;;;;;;;;;;5135750;27;20608;-69
2021/05/06 13:48:41;;;;;;;6.03;2.38;;;;;;;;;;5136294;27;20483;-69
2021/05/06 13:51:09;;;;;;;7.20;3.42;;;;;;;;;;5133298;27;20065;-69
2021/05/06 13:53:35;;;;;;;7.05;3.10;;;;;;;;;;5138089;27;20043;-69
2021/05/06 13:56:01;;;;;;;4.43;2.58;;;;;;;;;;5139854;27;20055;-70
2021/05/06 13:58:28;;;;;;;5.13;2.58;;;;;;;;;;5133989;27;20134;-69
2021/05/06 14:00:54;;;;;;;7.10;2.67;;;;;;;;;;5126581;27;20067;-70
2021/05/06 14:03:22;;;;;;;7.97;3.33;;;;;;;;;;5125133;27;20061;-70
2021/05/06 14:05:49;;;;;;;6.10;3.28;;;;;;;;;;5134263;27;20051;-69
2021/05/06 14:08:15;;;;;;;5.45;2.67;;;;;;;;;;5136081;27;20039;-69
2021/05/06 14:10:41;;;;;;;4.68;2.70;;;;;;;;;;5134957;27;20415;-69
2021/05/06 14:13:07;;;;;;;7.68;3.30;;;;;;;;;;5135385;27;20751;-68
2021/05/06 14:15:34;;;;;;;5.07;2.30;;;;;;;;;;5131596;27;20740;-69
2021/05/06 14:18:00;;;;;;;4.72;2.33;;;;;;;;;;5134307;27;20054;-68
2021/05/06 14:20:26;;;;;;;6.85;2.53;;;;;;;;;;5130785;27;20057;-69
2021/05/06 14:22:52;;;;;;;6.95;2.70;;;;;;;;;;5133006;27;20057;-68
2021/05/06 14:25:19;;;;;;;4.40;2.20;;;;;;;;;;5136128;27;20051;-69
2021/05/06 14:27:45;;;;;;;6.53;2.60;;;;;;;;;;5135207;27;20043;-69
2021/05/06 14:30:11;;;;;;;4.22;2.40;;;;;;;;;;5135533;27;20047;-69
2021/05/06 14:32:38;;;;;;;6.57;2.28;;;;;;;;;;5134078;27;20066;-69
2021/05/06 14:35:06;;;;;;;7.10;3.17;;;;;;;;;;5134552;27;20130;-69
2021/05/06 14:37:32;;;;;;;7.07;3.95;;;;;;;;;;5133435;27;20144;-68
2021/05/06 14:39:58;;;;;;;5.75;3.50;;;;;;;;;;5135114;27;20054;-67
2021/05/06 14:42:24;;;;;;;5.68;2.70;;;;;;;;;;5133888;27;20492;-68
2021/05/06 14:44:50;;;;;;;5.80;3.08;;;;;;;;;;5135335;27;20053;-68
2021/05/06 14:47:16;;;;;;;5.65;2.70;;;;;;;;;;5135245;27;20100;-68
2021/05/06 14:49:43;;;;;;;5.85;3.25;;;;;;;;;;5136450;27;20055;-69
2021/05/06 14:52:09;;;;;;;5.10;2.97;;;;;;;;;;5133480;27;20046;-69
2021/05/06 14:54:35;;;;;;;6.72;3.90;;;;;;;;;;5134907;27;20074;-69
2021/05/06 14:57:01;;;;;;;5.95;3.13;;;;;;;;;;5134912;27;20047;-69
2021/05/06 14:59:27;;;;;;;6.13;3.30;;;;;;;;;;5127690;27;20051;-69
2021/05/06 15:01:54;;;;;;;6.50;4.90;;;;;;;;;;5134082;27;20047;-67
2021/05/06 15:04:20;;;;;;;5.25;2.80;;;;;;;;;;5135525;27;20047;-68
2021/05/06 15:06:46;;;;;;;6.60;3.72;;;;;;;;;;5134440;27;20083;-68
2021/05/06 15:09:12;;;;;;;11.60;7.47;;;;;;;;;;5128016;27;20407;-67
2021/05/06 15:11:40;;;;;;;9.75;6.00;;;;;;;;;;5130426;27;20393;-67
2021/05/06 15:14:06;;;;;;;14.30;9.27;;;;;;;;;;5134123;27;20175;-68
2021/05/06 15:16:32;;;;;;;11.00;6.90;;;;;;;;;;5133791;27;20514;-67
2021/05/06 15:18:58;;;;;;;9.57;5.70;;;;;;;;;;5134216;27;20042;-68
2021/05/06 15:21:24;;;;;;;9.73;5.20;;;;;;;;;;5132986;27;20051;-68
2021/05/06 15:23:51;;;;;;;4.28;2.75;;;;;;;;;;5134196;27;20058;-68
2021/05/06 15:26:17;;;;;;;6.10;3.90;;;;;;;;;;5132323;27;20076;-68
2021/05/06 15:28:43;;;;;;;6.32;2.75;;;;;;;;;;5133076;27;20047;-68
2021/05/06 15:31:09;;;;;;;6.22;2.67;;;;;;;;;;5129670;27;20066;-68
2021/05/06 15:33:35;;;;;;;4.20;2.30;;;;;;;;;;5131277;27;20138;-68
2021/05/06 15:36:01;;;;;;;5.25;2.35;;;;;;;;;;5132954;27;20047;-69
2021/05/06 15:38:28;;;;;;;5.43;3.63;;;;;;;;;;5133779;27;20084;-69
2021/05/06 15:40:55;;;;;;;8.38;4.00;;;;;;;;;;5133076;27;20055;-69
2021/05/06 15:43:21;;;;;;;4.15;3.00;;;;;;;;;;5133627;27;20047;-67
2021/05/06 15:45:47;;;;;;;6.20;3.00;;;;;;;;;;5132932;27;20043;-67
2021/05/06 15:48:15;;;;;;;8.48;4.10;;;;;;;;;;5132684;27;20055;-67
2021/05/06 15:50:43;;;;;;;6.88;3.75;;;;;;;;;;5132230;27;20051;-67
2021/05/06 15:53:09;;;;;;;7.43;5.18;;;;;;;;;;5133100;27;20368;-68
2021/05/06 15:55:36;;;;;;;7.35;4.47;;;;;;;;;;5133517;27;20043;-67
2021/05/06 15:58:05;;;;;;;7.57;5.22;;;;;;;;;;5129331;27;20043;-67
2021/05/06 16:00:31;;;;;;;9.18;6.07;;;;;;;;;;5132540;27;20484;-67
2021/05/06 16:03:00;;;;;;;7.78;3.80;;;;;;;;;;5132642;27;20426;-67
2021/05/06 16:05:28;;;;;;;6.72;4.05;;;;;;;;;;5133551;27;20492;-67
2021/05/06 16:07:54;;;;;;;6.03;4.00;;;;;;;;;;5132940;27;20131;-67
2021/05/06 16:10:21;;;;;;;6.70;3.08;;;;;;;;;;5141426;27;20047;-67
2021/05/06 16:12:47;;;;;;;3.95;2.85;;;;;;;;;;5132825;27;20043;-67
2021/05/06 16:15:15;;;;;;;5.03;2.90;;;;;;;;;;5133445;27;20039;-67
2021/05/06 16:17:41;;;;;;;4.53;2.30;;;;;;;;;;5133225;27;20035;-67
2021/05/06 16:20:13;;;;;;;5.63;3.00;;;;;;;;;;5129326;27;20043;-67
2021/05/06 16:22:39;;;;;;;3.47;2.58;;;;;;;;;;5131865;27;20131;-67
2021/05/06 16:25:06;;;;;;;4.65;2.90;;;;;;;;;;5132664;27;20690;-67
2021/05/06 16:27:32;;;;;;;6.78;4.13;;;;;;;;;;5132589;27;20261;-67
2021/05/06 16:29:58;;;;;;;5.20;3.13;;;;;;;;;;5132041;28;20097;-67
2021/05/06 16:32:25;;;;;;;4.72;2.58;;;;;;;;;;5126403;28;20047;-67
2021/05/06 16:34:51;;;;;;;3.92;2.45;;;;;;;;;;5129230;28;20047;-67
2021/05/06 16:37:24;;;;;;;5.95;2.80;;;;;;;;;;5130151;28;20584;-68
2021/05/06 16:39:58;;;;;;;6.28;3.10;;;;;;;;;;5133630;27;20051;-67
2021/05/06 16:42:44;;;;;;;4.78;3.00;;;;;;;;;;5128388;27;20514;-67
2021/05/06 16:45:11;;;;;;;6.78;3.75;;;;;;;;;;5123994;27;20043;-66
2021/05/06 16:47:38;;;;;;;4.45;2.50;;;;;;;;;;5131422;28;20428;-69
2021/05/06 16:50:05;;;;;;;5.28;3.13;;;;;;;;;;5130419;27;20145;-67
2021/05/06 16:52:31;;;;;;;6.72;3.33;;;;;;;;;;5131923;28;20108;-67
2021/05/06 16:54:57;;;;;;;6.13;2.70;;;;;;;;;;5131702;28;20055;-66
2021/05/06 16:57:23;;;;;;;7.75;3.08;;;;;;;;;;5126310;27;20055;-66
2021/05/06 16:59:50;;;;;;;5.22;3.08;;;;;;;;;;5135554;27;20051;-66
2021/05/06 17:02:16;;;;;;;5.72;3.40;;;;;;;;;;5134827;27;20047;-66
2021/05/06 17:04:43;;;;;;;6.25;3.80;;;;;;;;;;5120618;27;20286;-66
2021/05/06 17:07:09;;;;;;;6.70;3.00;;;;;;;;;;5136568;27;20047;-66
2021/05/06 17:09:38;;;;;;;5.28;3.13;;;;;;;;;;5137269;27;20049;-66
2021/05/06 17:12:04;;;;;;;5.53;3.40;;;;;;;;;;5131450;27;20145;-66
2021/05/06 17:14:31;;;;;;;4.68;2.85;;;;;;;;;;5141397;27;20039;-66
2021/05/06 17:16:57;;;;;;;4.82;3.03;;;;;;;;;;5137536;27;20120;-66